createdAt,value
2018-12-23T00:00:15.807Z,0.00
2018-12-23T00:01:15.692Z,0.00
2018-12-23T00:02:15.681Z,0.00
2018-12-23T00:03:15.672Z,0.00
2018-12-23T00:04:15.695Z,0.00
2018-12-23T00:05:15.649Z,0.00
2018-12-23T00:06:15.641Z,0.00
2018-12-23T00:07:15.629Z,0.00
2018-12-23T00:08:15.620Z,0.00
2018-12-23T00:09:15.606Z,0.00
2018-12-23T00:10:15.713Z,0.00
2018-12-23T00:11:15.584Z,0.00
2018-12-23T00:12:15.574Z,0.00
2018-12-23T00:13:15.568Z,0.00
2018-12-23T00:14:15.553Z,0.00
2018-12-23T00:15:15.594Z,0.00
2018-12-23T00:16:15.539Z,0.00
2018-12-23T00:17:15.527Z,0.00
2018-12-23T00:18:15.511Z,0.00
2018-12-23T00:19:15.500Z,0.00
2018-12-23T00:20:15.492Z,0.00
2018-12-23T00:21:15.504Z,0.00
2018-12-23T00:22:15.468Z,0.00
2018-12-23T00:23:15.460Z,0.00
2018-12-23T00:24:15.447Z,0.00
2018-12-23T00:25:15.437Z,0.00
2018-12-23T00:26:15.460Z,0.00
2018-12-23T00:27:15.414Z,0.00
2018-12-23T00:28:15.404Z,0.00
2018-12-23T00:29:15.394Z,0.00
2018-12-23T00:30:15.384Z,0.00
2018-12-23T00:31:15.374Z,0.00
2018-12-23T00:32:15.397Z,0.00
2018-12-23T00:33:15.352Z,0.00
2018-12-23T00:34:15.341Z,0.00
2018-12-23T00:35:20.195Z,0.00
2018-12-23T00:36:16.318Z,0.00
2018-12-23T00:37:15.309Z,0.00
2018-12-23T00:38:15.336Z,0.00
2018-12-23T00:39:15.286Z,0.00
2018-12-23T00:40:15.274Z,0.00
2018-12-23T00:41:15.265Z,0.00
2018-12-23T00:42:15.253Z,0.00
2018-12-23T00:43:15.243Z,0.00
2018-12-23T00:44:15.269Z,0.00
2018-12-23T00:45:15.221Z,0.00
2018-12-23T00:46:15.211Z,0.00
2018-12-23T00:47:15.200Z,0.00
2018-12-23T00:48:15.190Z,0.00
2018-12-23T00:49:15.177Z,0.00
2018-12-23T00:50:15.193Z,0.00
2018-12-23T00:51:15.157Z,0.00
2018-12-23T00:52:15.146Z,0.00
2018-12-23T00:53:15.137Z,0.00
2018-12-23T00:54:15.124Z,0.00
2018-12-23T00:55:15.144Z,0.00
2018-12-23T00:56:15.105Z,0.00
2018-12-23T00:57:15.092Z,0.00
2018-12-23T00:58:15.081Z,0.00
2018-12-23T00:59:15.070Z,0.00
2018-12-23T01:00:15.095Z,0.00
2018-12-23T01:01:15.049Z,0.00
2018-12-23T01:02:15.040Z,0.00
2018-12-23T01:03:15.028Z,0.00
2018-12-23T01:04:15.016Z,0.00
2018-12-23T01:05:15.016Z,0.00
2018-12-23T01:06:15.035Z,0.00
2018-12-23T01:07:14.983Z,0.00
2018-12-23T01:08:14.973Z,0.00
2018-12-23T01:09:14.962Z,0.00
2018-12-23T01:10:14.952Z,0.00
2018-12-23T01:11:14.944Z,0.00
2018-12-23T01:12:15.048Z,0.00
2018-12-23T01:13:14.919Z,0.00
2018-12-23T01:14:14.908Z,0.00
2018-12-23T01:15:14.900Z,0.00
2018-12-23T01:16:14.886Z,0.00
2018-12-23T01:17:14.876Z,0.00
2018-12-23T01:18:14.901Z,0.00
2018-12-23T01:19:14.853Z,0.00
2018-12-23T01:20:14.844Z,0.00
2018-12-23T01:21:14.832Z,0.00
2018-12-23T01:22:14.822Z,0.00
2018-12-23T01:23:14.811Z,0.00
2018-12-23T01:24:14.838Z,0.00
2018-12-23T01:25:14.787Z,0.00
2018-12-23T01:26:14.777Z,0.00
2018-12-23T01:27:14.769Z,0.00
2018-12-23T01:28:14.755Z,0.00
2018-12-23T01:29:14.744Z,0.00
2018-12-23T01:30:14.758Z,0.00
2018-12-23T01:31:14.722Z,0.00
2018-12-23T01:32:14.710Z,0.00
2018-12-23T01:33:14.701Z,0.00
2018-12-23T01:34:14.689Z,0.00
2018-12-23T01:35:14.703Z,0.00
2018-12-23T01:36:14.670Z,0.00
2018-12-23T01:37:14.684Z,0.00
2018-12-23T01:38:14.706Z,0.00
2018-12-23T01:39:14.634Z,0.00
2018-12-23T01:40:14.649Z,0.00
2018-12-23T01:41:14.613Z,0.00
2018-12-23T01:42:14.602Z,0.00
2018-12-23T01:43:14.601Z,0.00
2018-12-23T01:44:14.577Z,0.00
2018-12-23T01:45:14.603Z,0.00
2018-12-23T01:46:14.558Z,0.00
2018-12-23T01:47:14.547Z,0.00
2018-12-23T01:48:14.535Z,0.00
2018-12-23T01:49:14.522Z,0.00
2018-12-23T01:50:14.515Z,0.00
2018-12-23T01:51:14.525Z,0.00
2018-12-23T01:52:14.490Z,0.00
2018-12-23T01:53:14.483Z,0.00
2018-12-23T01:54:14.468Z,0.00
2018-12-23T01:55:14.462Z,0.00
2018-12-23T01:56:14.487Z,0.00
2018-12-23T01:57:14.437Z,0.00
2018-12-23T01:58:14.426Z,0.00
2018-12-23T01:59:14.416Z,0.00
2018-12-23T02:00:14.406Z,0.00
2018-12-23T02:01:14.392Z,0.00
2018-12-23T02:02:14.422Z,0.00
2018-12-23T02:03:14.372Z,0.00
2018-12-23T02:04:14.361Z,0.00
2018-12-23T02:05:14.354Z,0.00
2018-12-23T02:06:14.343Z,0.00
2018-12-23T02:07:14.329Z,0.00
2018-12-23T02:08:14.356Z,0.00
2018-12-23T02:09:14.310Z,0.00
2018-12-23T02:10:14.295Z,0.00
2018-12-23T02:11:14.285Z,0.00
2018-12-23T02:12:14.273Z,0.00
2018-12-23T02:13:14.264Z,0.00
2018-12-23T02:14:14.289Z,0.00
2018-12-23T02:15:14.241Z,0.00
2018-12-23T02:16:14.234Z,0.00
2018-12-23T02:17:14.220Z,0.00
2018-12-23T02:18:14.213Z,0.00
2018-12-23T02:19:14.198Z,0.00
2018-12-23T02:20:14.213Z,0.00
2018-12-23T02:21:14.177Z,0.00
2018-12-23T02:22:14.168Z,0.00
2018-12-23T02:23:14.153Z,0.00
2018-12-23T02:24:14.142Z,0.00
2018-12-23T02:25:14.167Z,0.00
2018-12-23T02:26:14.121Z,0.00
2018-12-23T02:27:14.110Z,0.00
2018-12-23T02:28:14.100Z,0.00
2018-12-23T02:29:14.088Z,0.00
2018-12-23T02:30:14.092Z,0.00
2018-12-23T02:31:14.091Z,0.00
2018-12-23T02:32:14.055Z,0.00
2018-12-23T02:33:14.049Z,0.00
2018-12-23T02:34:14.036Z,0.00
2018-12-23T02:35:14.027Z,0.00
2018-12-23T02:36:14.050Z,0.00
2018-12-23T02:37:14.000Z,0.00
2018-12-23T02:38:13.999Z,0.00
2018-12-23T02:39:13.982Z,0.00
2018-12-23T02:40:13.968Z,0.00
2018-12-23T02:41:13.959Z,0.00
2018-12-23T02:42:13.985Z,0.00
2018-12-23T02:43:13.940Z,0.00
2018-12-23T02:44:13.924Z,0.00
2018-12-23T02:45:13.914Z,0.00
2018-12-23T02:46:13.907Z,0.00
2018-12-23T02:47:13.893Z,0.00
2018-12-23T02:48:13.919Z,0.00
2018-12-23T02:49:13.871Z,0.00
2018-12-23T02:50:13.862Z,0.00
2018-12-23T02:51:13.850Z,0.00
2018-12-23T02:52:13.836Z,0.00
2018-12-23T02:53:13.830Z,0.00
2018-12-23T02:54:13.853Z,0.00
2018-12-23T02:55:13.805Z,0.00
2018-12-23T02:56:13.796Z,0.00
2018-12-23T02:57:13.784Z,0.00
2018-12-23T02:58:13.774Z,0.00
2018-12-23T02:59:13.762Z,0.00
2018-12-23T03:00:13.789Z,0.00
2018-12-23T03:01:13.740Z,0.00
2018-12-23T03:02:13.729Z,0.00
2018-12-23T03:03:13.719Z,0.00
2018-12-23T03:04:13.709Z,0.00
2018-12-23T03:05:13.732Z,0.00
2018-12-23T03:06:13.685Z,0.00
2018-12-23T03:07:13.675Z,0.00
2018-12-23T03:08:13.665Z,0.00
2018-12-23T03:09:13.653Z,0.00
2018-12-23T03:10:13.642Z,0.00
2018-12-23T03:11:13.657Z,0.00
2018-12-23T03:12:13.620Z,0.00
2018-12-23T03:13:13.613Z,0.00
2018-12-23T03:14:13.599Z,0.00
2018-12-23T03:15:13.598Z,0.00
2018-12-23T03:16:13.622Z,0.00
2018-12-23T03:17:13.568Z,0.00
2018-12-23T03:18:13.555Z,0.00
2018-12-23T03:19:13.542Z,0.00
2018-12-23T03:20:13.535Z,0.00
2018-12-23T03:21:13.522Z,0.00
2018-12-23T03:22:13.535Z,0.00
2018-12-23T03:23:13.498Z,0.00
2018-12-23T03:24:13.489Z,0.00
2018-12-23T03:25:13.480Z,0.00
2018-12-23T03:26:13.467Z,0.00
2018-12-23T03:27:13.480Z,0.00
2018-12-23T03:28:13.445Z,0.00
2018-12-23T03:29:13.434Z,0.00
2018-12-23T03:30:13.436Z,0.00
2018-12-23T03:31:13.411Z,0.00
2018-12-23T03:32:13.442Z,0.00
2018-12-23T03:33:13.391Z,0.00
2018-12-23T03:34:13.385Z,0.00
2018-12-23T03:35:13.367Z,0.00
2018-12-23T03:36:15.281Z,0.00
2018-12-23T03:37:13.345Z,0.00
2018-12-23T03:38:13.358Z,0.00
2018-12-23T03:39:13.322Z,0.00
2018-12-23T03:40:13.311Z,0.00
2018-12-23T03:41:13.302Z,0.00
2018-12-23T03:42:13.288Z,0.00
2018-12-23T03:43:13.303Z,0.00
2018-12-23T03:44:13.266Z,0.00
2018-12-23T03:45:13.258Z,0.00
2018-12-23T03:46:13.245Z,0.00
2018-12-23T03:47:13.236Z,0.00
2018-12-23T03:48:13.259Z,0.00
2018-12-23T03:49:13.213Z,0.00
2018-12-23T03:50:13.200Z,0.00
2018-12-23T03:51:13.189Z,0.00
2018-12-23T03:52:13.179Z,0.00
2018-12-23T03:53:13.166Z,0.00
2018-12-23T03:54:13.180Z,0.00
2018-12-23T03:55:13.147Z,0.00
2018-12-23T03:56:13.135Z,0.00
2018-12-23T03:57:13.123Z,0.00
2018-12-23T03:58:13.113Z,0.00
2018-12-23T03:59:13.124Z,0.00
2018-12-23T04:00:13.088Z,0.00
2018-12-23T04:01:13.079Z,0.00
2018-12-23T04:02:13.070Z,0.00
2018-12-23T04:03:13.056Z,0.00
2018-12-23T04:04:13.081Z,0.00
2018-12-23T04:05:13.039Z,0.00
2018-12-23T04:06:13.026Z,0.00
2018-12-23T04:07:13.011Z,0.00
2018-12-23T04:08:13.001Z,0.00
2018-12-23T04:09:12.995Z,0.00
2018-12-23T04:10:13.006Z,0.00
2018-12-23T04:11:12.968Z,0.00
2018-12-23T04:12:12.998Z,0.00
2018-12-23T04:13:12.945Z,0.00
2018-12-23T04:14:12.934Z,0.00
2018-12-23T04:15:12.952Z,0.00
2018-12-23T04:16:12.912Z,0.00
2018-12-23T04:17:12.902Z,0.00
2018-12-23T04:18:12.893Z,0.00
2018-12-23T04:19:12.882Z,0.00
2018-12-23T04:20:12.901Z,0.00
2018-12-23T04:21:12.859Z,0.00
2018-12-23T04:22:12.846Z,0.00
2018-12-23T04:23:12.838Z,0.00
2018-12-23T04:24:12.830Z,0.00
2018-12-23T04:25:12.851Z,0.00
2018-12-23T04:26:12.803Z,0.00
2018-12-23T04:27:12.796Z,0.00
2018-12-23T04:28:12.780Z,0.00
2018-12-23T04:29:12.773Z,0.00
2018-12-23T04:30:12.761Z,0.00
2018-12-23T04:31:12.775Z,0.00
2018-12-23T04:32:12.740Z,0.00
2018-12-23T04:33:12.729Z,0.00
2018-12-23T04:34:12.717Z,0.00
2018-12-23T04:35:12.707Z,0.00
2018-12-23T04:36:12.734Z,0.00
2018-12-23T04:37:12.682Z,0.00
2018-12-23T04:38:12.674Z,0.00
2018-12-23T04:39:12.663Z,0.00
2018-12-23T04:40:12.651Z,0.00
2018-12-23T04:41:12.639Z,0.00
2018-12-23T04:42:12.652Z,0.00
2018-12-23T04:43:12.618Z,0.00
2018-12-23T04:44:12.605Z,0.00
2018-12-23T04:45:12.595Z,0.00
2018-12-23T04:46:12.587Z,0.00
2018-12-23T04:47:12.598Z,0.00
2018-12-23T04:48:12.563Z,0.00
2018-12-23T04:49:12.552Z,0.00
2018-12-23T04:50:12.543Z,0.00
2018-12-23T04:51:12.531Z,0.00
2018-12-23T04:52:12.557Z,0.00
2018-12-23T04:53:12.508Z,0.00
2018-12-23T04:54:12.497Z,0.00
2018-12-23T04:55:12.490Z,0.00
2018-12-23T04:56:12.476Z,0.00
2018-12-23T04:57:12.467Z,0.00
2018-12-23T04:58:12.478Z,0.00
2018-12-23T04:59:12.443Z,0.00
2018-12-23T05:00:12.433Z,0.00
2018-12-23T05:01:12.444Z,0.00
2018-12-23T05:02:12.409Z,0.00
2018-12-23T05:03:12.399Z,0.00
2018-12-23T05:04:12.389Z,0.00
2018-12-23T05:05:12.377Z,0.00
2018-12-23T05:06:12.393Z,0.00
2018-12-23T05:07:12.355Z,0.00
2018-12-23T05:08:12.342Z,0.00
2018-12-23T05:09:12.438Z,0.00
2018-12-23T05:10:12.347Z,0.00
2018-12-23T05:11:12.310Z,0.00
2018-12-23T05:12:12.299Z,0.00
2018-12-23T05:13:12.292Z,0.00
2018-12-23T05:14:12.277Z,0.00
2018-12-23T05:15:12.290Z,0.00
2018-12-23T05:16:12.255Z,0.00
2018-12-23T05:17:12.243Z,0.00
2018-12-23T05:18:12.233Z,0.00
2018-12-23T05:19:12.227Z,0.00
2018-12-23T05:20:12.235Z,0.00
2018-12-23T05:21:12.199Z,0.00
2018-12-23T05:22:12.190Z,0.00
2018-12-23T05:23:12.177Z,0.00
2018-12-23T05:24:12.167Z,0.00
2018-12-23T05:25:12.181Z,0.00
2018-12-23T05:26:12.143Z,0.00
2018-12-23T05:27:12.133Z,0.00
2018-12-23T05:28:12.122Z,0.00
2018-12-23T05:29:12.115Z,0.00
2018-12-23T05:30:12.123Z,0.00
2018-12-23T05:31:12.092Z,0.00
2018-12-23T05:32:12.078Z,0.00
2018-12-23T05:33:12.079Z,0.00
2018-12-23T05:34:12.056Z,0.00
2018-12-23T05:35:12.073Z,0.00
2018-12-23T05:36:12.034Z,0.00
2018-12-23T05:37:12.025Z,0.00
2018-12-23T05:38:12.012Z,0.00
2018-12-23T05:39:12.003Z,0.00
2018-12-23T05:40:12.013Z,0.00
2018-12-23T05:41:11.983Z,0.00
2018-12-23T05:42:11.967Z,0.00
2018-12-23T05:43:11.955Z,0.00
2018-12-23T05:44:11.947Z,0.00
2018-12-23T05:45:11.960Z,0.00
2018-12-23T05:46:11.928Z,0.00
2018-12-23T05:47:11.912Z,0.00
2018-12-23T05:48:11.902Z,0.00
2018-12-23T05:49:11.891Z,0.00
2018-12-23T05:50:11.903Z,0.00
2018-12-23T05:51:11.869Z,0.00
2018-12-23T05:52:11.858Z,0.00
2018-12-23T05:53:11.847Z,0.00
2018-12-23T05:54:11.835Z,0.00
2018-12-23T05:55:11.852Z,0.00
2018-12-23T05:56:11.812Z,0.00
2018-12-23T05:57:11.806Z,0.00
2018-12-23T05:58:11.793Z,0.00
2018-12-23T05:59:11.781Z,0.00
2018-12-23T06:00:11.796Z,0.00
2018-12-23T06:01:11.759Z,0.00
2018-12-23T06:02:11.749Z,0.00
2018-12-23T06:03:11.738Z,0.00
2018-12-23T06:04:11.735Z,0.00
2018-12-23T06:05:11.741Z,0.00
2018-12-23T06:06:11.705Z,0.00
2018-12-23T06:07:11.694Z,0.00
2018-12-23T06:08:11.684Z,0.00
2018-12-23T06:09:11.673Z,0.00
2018-12-23T06:10:11.689Z,0.00
2018-12-23T06:11:11.651Z,0.00
2018-12-23T06:12:11.641Z,0.00
2018-12-23T06:13:11.630Z,0.00
2018-12-23T06:14:11.621Z,0.00
2018-12-23T06:15:11.634Z,0.00
2018-12-23T06:16:11.602Z,0.00
2018-12-23T06:17:11.586Z,0.00
2018-12-23T06:18:11.576Z,0.00
2018-12-23T06:19:11.566Z,0.00
2018-12-23T06:20:11.579Z,0.00
2018-12-23T06:21:11.544Z,0.00
2018-12-23T06:22:11.534Z,0.00
2018-12-23T06:23:11.524Z,0.00
2018-12-23T06:24:11.512Z,0.00
2018-12-23T06:25:11.535Z,0.00
2018-12-23T06:26:11.491Z,0.00
2018-12-23T06:27:11.568Z,0.00
2018-12-23T06:28:11.472Z,0.00
2018-12-23T06:29:11.463Z,0.00
2018-12-23T06:30:11.473Z,0.00
2018-12-23T06:31:11.438Z,0.00
2018-12-23T06:32:11.429Z,0.00
2018-12-23T06:33:11.415Z,0.00
2018-12-23T06:34:11.408Z,0.00
2018-12-23T06:35:11.420Z,0.00
2018-12-23T06:36:11.382Z,0.00
2018-12-23T06:37:11.377Z,0.00
2018-12-23T06:38:11.361Z,0.00
2018-12-23T06:39:11.349Z,0.00
2018-12-23T06:40:11.365Z,0.00
2018-12-23T06:41:11.330Z,0.00
2018-12-23T06:42:11.320Z,0.00
2018-12-23T06:43:11.313Z,0.00
2018-12-23T06:44:11.302Z,0.00
2018-12-23T06:45:11.316Z,0.00
2018-12-23T06:46:11.276Z,0.00
2018-12-23T06:47:11.266Z,0.00
2018-12-23T06:48:11.256Z,0.00
2018-12-23T06:49:11.244Z,0.00
2018-12-23T06:50:11.258Z,0.00
2018-12-23T06:51:11.222Z,0.00
2018-12-23T06:52:11.211Z,0.00
2018-12-23T06:53:11.203Z,0.00
2018-12-23T06:54:11.191Z,0.00
2018-12-23T06:55:11.205Z,0.00
2018-12-23T06:56:11.173Z,0.00
2018-12-23T06:57:11.161Z,0.00
2018-12-23T06:58:11.146Z,0.00
2018-12-23T06:59:11.137Z,0.00
2018-12-23T07:00:11.155Z,0.00
2018-12-23T07:01:11.115Z,0.00
2018-12-23T07:02:11.104Z,0.00
2018-12-23T07:03:11.094Z,0.00
2018-12-23T07:04:11.109Z,0.00
2018-12-23T07:05:11.076Z,0.00
2018-12-23T07:06:11.065Z,0.00
2018-12-23T07:07:18.387Z,0.00
2018-12-23T07:08:12.041Z,0.00
2018-12-23T07:09:11.056Z,0.00
2018-12-23T07:10:11.019Z,0.00
2018-12-23T07:11:11.010Z,0.00
2018-12-23T07:12:10.997Z,0.00
2018-12-23T07:13:10.988Z,0.00
2018-12-23T07:14:11.003Z,0.00
2018-12-23T07:15:10.965Z,0.00
2018-12-23T07:16:10.955Z,0.00
2018-12-23T07:17:10.950Z,0.00
2018-12-23T07:18:10.934Z,0.00
2018-12-23T07:19:10.948Z,0.00
2018-12-23T07:20:10.915Z,0.00
2018-12-23T07:21:10.903Z,0.00
2018-12-23T07:22:10.893Z,0.00
2018-12-23T07:23:10.883Z,0.00
2018-12-23T07:24:10.896Z,0.00
2018-12-23T07:25:10.861Z,0.00
2018-12-23T07:26:10.849Z,0.00
2018-12-23T07:27:10.838Z,0.00
2018-12-23T07:28:10.827Z,0.00
2018-12-23T07:29:10.841Z,0.00
2018-12-23T07:30:10.806Z,0.00
2018-12-23T07:31:10.796Z,0.00
2018-12-23T07:32:10.787Z,0.00
2018-12-23T07:33:10.773Z,0.00
2018-12-23T07:34:10.847Z,0.00
2018-12-23T07:35:10.753Z,0.00
2018-12-23T07:36:10.740Z,0.00
2018-12-23T07:37:10.731Z,0.00
2018-12-23T07:38:10.760Z,0.00
2018-12-23T07:39:10.743Z,0.00
2018-12-23T07:40:10.698Z,0.00
2018-12-23T07:41:10.686Z,0.00
2018-12-23T07:42:10.678Z,0.00
2018-12-23T07:43:10.665Z,0.00
2018-12-23T07:44:10.661Z,0.00
2018-12-23T07:45:10.668Z,0.00
2018-12-23T07:46:10.631Z,0.00
2018-12-23T07:47:10.623Z,0.00
2018-12-23T07:48:10.688Z,0.00
2018-12-23T07:49:10.620Z,0.00
2018-12-23T07:50:10.676Z,0.00
2018-12-23T07:51:10.574Z,0.00
2018-12-23T07:52:10.565Z,0.00
2018-12-23T07:53:10.574Z,0.00
2018-12-23T07:54:10.542Z,0.00
2018-12-23T07:55:10.556Z,0.00
2018-12-23T07:56:10.520Z,0.00
2018-12-23T07:57:10.508Z,0.00
2018-12-23T07:58:10.495Z,0.00
2018-12-23T07:59:10.487Z,5.62
2018-12-23T08:00:10.503Z,5.62
2018-12-23T08:01:10.465Z,5.62
2018-12-23T08:02:10.454Z,5.62
2018-12-23T08:03:10.441Z,5.62
2018-12-23T08:04:10.433Z,5.62
2018-12-23T08:05:10.449Z,5.62
2018-12-23T08:06:10.429Z,5.62
2018-12-23T08:07:10.404Z,5.62
2018-12-23T08:08:10.386Z,5.62
2018-12-23T08:09:10.375Z,5.62
2018-12-23T08:10:10.392Z,5.62
2018-12-23T08:11:10.352Z,5.62
2018-12-23T08:12:10.340Z,5.62
2018-12-23T08:13:10.334Z,5.62
2018-12-23T08:14:10.320Z,5.62
2018-12-23T08:15:10.334Z,5.62
2018-12-23T08:16:10.296Z,5.62
2018-12-23T08:17:10.288Z,5.62
2018-12-23T08:18:10.273Z,5.62
2018-12-23T08:19:10.291Z,5.62
2018-12-23T08:20:10.253Z,5.62
2018-12-23T08:21:10.241Z,5.62
2018-12-23T08:22:10.231Z,0.00
2018-12-23T08:23:10.220Z,0.00
2018-12-23T08:24:10.234Z,5.62
2018-12-23T08:25:10.196Z,5.62
2018-12-23T08:26:10.186Z,5.62
2018-12-23T08:27:10.174Z,5.62
2018-12-23T08:28:10.165Z,5.62
2018-12-23T08:29:10.178Z,5.62
2018-12-23T08:30:10.142Z,5.62
2018-12-23T08:31:10.130Z,5.62
2018-12-23T08:32:10.118Z,5.62
2018-12-23T08:33:10.108Z,5.62
2018-12-23T08:34:10.124Z,5.62
2018-12-23T08:35:10.084Z,5.62
2018-12-23T08:36:10.074Z,5.62
2018-12-23T08:37:10.063Z,11.25
2018-12-23T08:38:10.053Z,5.62
2018-12-23T08:39:10.065Z,11.25
2018-12-23T08:40:10.029Z,11.25
2018-12-23T08:41:10.017Z,11.25
2018-12-23T08:42:10.010Z,11.25
2018-12-23T08:43:09.997Z,11.25
2018-12-23T08:44:10.012Z,11.25
2018-12-23T08:45:09.975Z,11.25
2018-12-23T08:46:09.964Z,11.25
2018-12-23T08:47:09.960Z,11.25
2018-12-23T08:48:09.941Z,11.25
2018-12-23T08:49:09.955Z,11.25
2018-12-23T08:50:09.918Z,11.25
2018-12-23T08:51:09.907Z,11.25
2018-12-23T08:52:09.898Z,11.25
2018-12-23T08:53:09.886Z,11.25
2018-12-23T08:54:09.899Z,5.62
2018-12-23T08:55:09.863Z,5.62
2018-12-23T08:56:09.851Z,11.25
2018-12-23T08:57:09.843Z,11.25
2018-12-23T08:58:09.857Z,11.25
2018-12-23T08:59:09.844Z,11.25
2018-12-23T09:00:09.808Z,16.88
2018-12-23T09:01:09.799Z,16.88
2018-12-23T09:02:09.786Z,16.88
2018-12-23T09:03:09.774Z,16.88
2018-12-23T09:04:09.791Z,22.50
2018-12-23T09:05:09.753Z,22.50
2018-12-23T09:06:09.742Z,22.50
2018-12-23T09:07:09.732Z,22.50
2018-12-23T09:08:09.722Z,22.50
2018-12-23T09:09:09.733Z,22.50
2018-12-23T09:10:09.698Z,22.50
2018-12-23T09:11:09.687Z,28.12
2018-12-23T09:12:09.675Z,28.12
2018-12-23T09:13:09.664Z,28.12
2018-12-23T09:14:09.681Z,28.12
2018-12-23T09:15:09.642Z,22.50
2018-12-23T09:16:09.631Z,16.88
2018-12-23T09:17:09.622Z,16.88
2018-12-23T09:18:09.609Z,16.88
2018-12-23T09:19:09.628Z,11.25
2018-12-23T09:20:09.588Z,11.25
2018-12-23T09:21:09.580Z,16.88
2018-12-23T09:22:09.568Z,16.88
2018-12-23T09:23:09.558Z,11.25
2018-12-23T09:24:09.570Z,11.25
2018-12-23T09:25:09.544Z,16.88
2018-12-23T09:26:09.527Z,16.88
2018-12-23T09:27:09.512Z,16.88
2018-12-23T09:28:09.502Z,16.88
2018-12-23T09:29:09.517Z,16.88
2018-12-23T09:30:09.481Z,16.88
2018-12-23T09:31:09.472Z,22.50
2018-12-23T09:32:09.459Z,22.50
2018-12-23T09:33:09.451Z,28.12
2018-12-23T09:34:09.466Z,28.12
2018-12-23T09:35:09.428Z,28.12
2018-12-23T09:36:09.416Z,28.12
2018-12-23T09:37:09.405Z,22.50
2018-12-23T09:38:09.396Z,28.12
2018-12-23T09:39:09.410Z,33.75
2018-12-23T09:40:09.378Z,33.75
2018-12-23T09:41:09.367Z,33.75
2018-12-23T09:42:09.355Z,33.75
2018-12-23T09:43:09.341Z,28.12
2018-12-23T09:44:09.357Z,28.12
2018-12-23T09:45:09.325Z,28.12
2018-12-23T09:46:09.310Z,22.50
2018-12-23T09:47:09.297Z,22.50
2018-12-23T09:48:09.288Z,28.12
2018-12-23T09:49:09.303Z,28.12
2018-12-23T09:50:09.265Z,28.12
2018-12-23T09:51:09.256Z,28.12
2018-12-23T09:52:09.244Z,28.12
2018-12-23T09:53:09.732Z,28.12
2018-12-23T09:54:10.234Z,28.12
2018-12-23T09:55:09.733Z,28.12
2018-12-23T09:56:09.732Z,22.50
2018-12-23T09:57:09.734Z,22.50
2018-12-23T09:58:09.187Z,28.12
2018-12-23T09:59:09.194Z,28.12
2018-12-23T10:00:09.157Z,28.12
2018-12-23T10:01:09.149Z,28.12
2018-12-23T10:02:09.139Z,22.50
2018-12-23T10:03:09.130Z,16.88
2018-12-23T10:04:09.142Z,16.88
2018-12-23T10:05:09.104Z,16.88
2018-12-23T10:06:09.094Z,16.88
2018-12-23T10:07:09.082Z,16.88
2018-12-23T10:08:10.250Z,11.25
2018-12-23T10:09:09.087Z,11.25
2018-12-23T10:10:09.050Z,11.25
2018-12-23T10:11:09.038Z,11.25
2018-12-23T10:12:09.027Z,16.88
2018-12-23T10:13:09.017Z,16.88
2018-12-23T10:14:09.034Z,22.50
2018-12-23T10:15:08.996Z,22.50
2018-12-23T10:16:09.098Z,28.12
2018-12-23T10:17:08.974Z,33.75
2018-12-23T10:18:08.963Z,33.75
2018-12-23T10:19:08.977Z,33.75
2018-12-23T10:20:08.942Z,33.75
2018-12-23T10:21:10.206Z,33.75
2018-12-23T10:22:08.941Z,33.75
2018-12-23T10:23:08.911Z,33.75
2018-12-23T10:24:08.925Z,39.38
2018-12-23T10:25:08.890Z,33.75
2018-12-23T10:26:08.896Z,33.75
2018-12-23T10:27:08.894Z,33.75
2018-12-23T10:28:08.899Z,33.75
2018-12-23T10:29:08.916Z,28.12
2018-12-23T10:30:08.836Z,22.50
2018-12-23T10:31:08.852Z,16.88
2018-12-23T10:32:08.822Z,16.88
2018-12-23T10:33:08.804Z,16.88
2018-12-23T10:34:08.818Z,16.88
2018-12-23T10:35:08.778Z,16.88
2018-12-23T10:36:08.771Z,11.25
2018-12-23T10:37:08.754Z,11.25
2018-12-23T10:38:08.742Z,11.25
2018-12-23T10:39:08.754Z,16.88
2018-12-23T10:40:08.800Z,22.50
2018-12-23T10:41:08.708Z,22.50
2018-12-23T10:42:08.698Z,22.50
2018-12-23T10:43:08.694Z,16.88
2018-12-23T10:44:08.700Z,16.88
2018-12-23T10:45:08.664Z,16.88
2018-12-23T10:46:08.652Z,16.88
2018-12-23T10:47:08.646Z,16.88
2018-12-23T10:48:08.631Z,11.25
2018-12-23T10:49:08.645Z,16.88
2018-12-23T10:50:08.610Z,16.88
2018-12-23T10:51:08.599Z,16.88
2018-12-23T10:52:08.588Z,22.50
2018-12-23T10:53:08.577Z,22.50
2018-12-23T10:54:08.590Z,22.50
2018-12-23T10:55:08.556Z,22.50
2018-12-23T10:56:08.544Z,22.50
2018-12-23T10:57:08.532Z,22.50
2018-12-23T10:58:08.521Z,28.12
2018-12-23T10:59:08.560Z,22.50
2018-12-23T11:00:08.500Z,28.12
2018-12-23T11:01:08.491Z,28.12
2018-12-23T11:02:13.606Z,28.12
2018-12-23T11:03:09.466Z,33.75
2018-12-23T11:04:08.485Z,33.75
2018-12-23T11:05:08.443Z,33.75
2018-12-23T11:06:08.433Z,33.75
2018-12-23T11:07:08.424Z,33.75
2018-12-23T11:08:08.414Z,33.75
2018-12-23T11:09:08.428Z,33.75
2018-12-23T11:10:08.413Z,33.75
2018-12-23T11:11:08.378Z,28.12
2018-12-23T11:12:08.369Z,28.12
2018-12-23T11:13:08.356Z,33.75
2018-12-23T11:14:08.373Z,33.75
2018-12-23T11:15:08.332Z,33.75
2018-12-23T11:16:08.322Z,39.38
2018-12-23T11:17:08.312Z,33.75
2018-12-23T11:18:08.304Z,28.12
2018-12-23T11:19:08.315Z,22.50
2018-12-23T11:20:08.278Z,22.50
2018-12-23T11:21:08.269Z,16.88
2018-12-23T11:22:08.254Z,16.88
2018-12-23T11:23:08.244Z,11.25
2018-12-23T11:24:08.288Z,11.25
2018-12-23T11:25:08.278Z,11.25
2018-12-23T11:26:08.217Z,11.25
2018-12-23T11:27:08.205Z,11.25
2018-12-23T11:28:08.193Z,11.25
2018-12-23T11:29:08.203Z,11.25
2018-12-23T11:30:08.168Z,16.88
2018-12-23T11:31:08.155Z,11.25
2018-12-23T11:32:08.147Z,11.25
2018-12-23T11:33:08.134Z,11.25
2018-12-23T11:34:08.150Z,5.62
2018-12-23T11:35:08.111Z,11.25
2018-12-23T11:36:08.100Z,11.25
2018-12-23T11:37:08.090Z,11.25
2018-12-23T11:38:08.080Z,11.25
2018-12-23T11:39:08.130Z,5.62
2018-12-23T11:40:08.054Z,11.25
2018-12-23T11:41:08.044Z,11.25
2018-12-23T11:42:08.031Z,11.25
2018-12-23T11:43:08.022Z,11.25
2018-12-23T11:44:08.038Z,16.88
2018-12-23T11:45:08.007Z,16.88
2018-12-23T11:46:07.990Z,16.88
2018-12-23T11:47:07.981Z,11.25
2018-12-23T11:48:07.968Z,11.25
2018-12-23T11:49:07.989Z,11.25
2018-12-23T11:50:07.952Z,11.25
2018-12-23T11:51:07.937Z,11.25
2018-12-23T11:52:07.923Z,11.25
2018-12-23T11:53:07.919Z,11.25
2018-12-23T11:54:07.925Z,11.25
2018-12-23T11:55:07.896Z,16.88
2018-12-23T11:56:07.971Z,16.88
2018-12-23T11:57:07.869Z,16.88
2018-12-23T11:58:07.884Z,16.88
2018-12-23T11:59:07.846Z,16.88
2018-12-23T12:00:07.836Z,16.88
2018-12-23T12:01:07.823Z,16.88
2018-12-23T12:02:15.095Z,16.88
2018-12-23T12:03:08.828Z,16.88
2018-12-23T12:04:07.790Z,22.50
2018-12-23T12:05:07.780Z,22.50
2018-12-23T12:06:07.769Z,22.50
2018-12-23T12:07:07.757Z,16.88
2018-12-23T12:08:07.771Z,16.88
2018-12-23T12:09:07.739Z,16.88
2018-12-23T12:10:07.723Z,16.88
2018-12-23T12:11:07.712Z,16.88
2018-12-23T12:12:07.700Z,16.88
2018-12-23T12:13:07.721Z,16.88
2018-12-23T12:14:07.685Z,16.88
2018-12-23T12:15:07.762Z,16.88
2018-12-23T12:16:07.656Z,16.88
2018-12-23T12:17:07.645Z,16.88
2018-12-23T12:18:07.660Z,11.25
2018-12-23T12:19:07.626Z,11.25
2018-12-23T12:20:07.717Z,11.25
2018-12-23T12:21:07.601Z,5.62
2018-12-23T12:22:07.590Z,5.62
2018-12-23T12:23:07.604Z,5.62
2018-12-23T12:24:07.567Z,5.62
2018-12-23T12:25:07.557Z,5.62
2018-12-23T12:26:07.547Z,5.62
2018-12-23T12:27:07.533Z,5.62
2018-12-23T12:28:07.550Z,11.25
2018-12-23T12:29:07.512Z,11.25
2018-12-23T12:30:07.503Z,11.25
2018-12-23T12:31:07.490Z,11.25
2018-12-23T12:32:07.479Z,11.25
2018-12-23T12:33:07.495Z,11.25
2018-12-23T12:34:07.458Z,11.25
2018-12-23T12:35:07.445Z,11.25
2018-12-23T12:36:07.437Z,5.62
2018-12-23T12:37:07.427Z,5.62
2018-12-23T12:38:07.441Z,5.62
2018-12-23T12:39:07.403Z,5.62
2018-12-23T12:40:07.391Z,5.62
2018-12-23T12:41:07.382Z,5.62
2018-12-23T12:42:07.369Z,5.62
2018-12-23T12:43:07.381Z,5.62
2018-12-23T12:44:07.350Z,5.62
2018-12-23T12:45:07.335Z,5.62
2018-12-23T12:46:07.325Z,11.25
2018-12-23T12:47:07.314Z,11.25
2018-12-23T12:48:07.329Z,11.25
2018-12-23T12:49:07.291Z,11.25
2018-12-23T12:50:07.281Z,11.25
2018-12-23T12:51:07.274Z,11.25
2018-12-23T12:52:07.260Z,5.62
2018-12-23T12:53:07.271Z,5.62
2018-12-23T12:54:07.244Z,5.62
2018-12-23T12:55:07.225Z,5.62
2018-12-23T12:56:07.215Z,5.62
2018-12-23T12:57:08.218Z,5.62
2018-12-23T12:58:09.712Z,5.62
2018-12-23T12:59:08.713Z,5.62
2018-12-23T13:00:08.214Z,5.62
2018-12-23T13:01:07.711Z,5.62
2018-12-23T13:02:08.216Z,5.62
2018-12-23T13:03:08.216Z,5.62
2018-12-23T13:04:08.213Z,5.62
2018-12-23T13:05:08.212Z,5.62
2018-12-23T13:06:07.718Z,5.62
2018-12-23T13:07:07.743Z,5.62
2018-12-23T13:08:07.738Z,5.62
2018-12-23T13:09:07.716Z,5.62
2018-12-23T13:10:07.720Z,5.62